Terminal Aerodrome Forecast
Issued by NWS

Home | Current Version | Previous Version | Text Only | Print | Product List | Glossary On
Versions: 1 2 3 4 5 6 7 8 9 10 11 12 13 14
000
FTUS45 KABQ 252300
TAFGUP
TAF
KGUP 252339Z 2600/2624 23018G28KT P6SM VCSH BKN080
     FM260200 23015KT P6SM BKN060
     FM260500 21011KT P6SM VCSH OVC040
     FM260700 23013KT 5SM -RA OVC025
     FM262000 24013G21KT 5SM -RA OVC025
     FM262300 30011KT P6SM VCSH OVC035=

USA.gov is the U.S. government's official web portal to all federal, state and local government web resources and services.